sensor_id;sensor_type;location;lat;lon;timestamp;P1;durP1;ratioP1;P2;durP2;ratioP2
21519;SDS011;10921;53.614;9.882;2022-09-03T00:02:13;9.68;;;9.07;;
21519;SDS011;10921;53.614;9.882;2022-09-03T00:05:01;10.02;;;9.13;;
21519;SDS011;10921;53.614;9.882;2022-09-03T00:07:43;10.15;;;9.35;;
21519;SDS011;10921;53.614;9.882;2022-09-03T00:10:15;9.88;;;9.10;;
21519;SDS011;10921;53.614;9.882;2022-09-03T00:12:47;9.57;;;8.98;;
21519;SDS011;10921;53.614;9.882;2022-09-03T00:15:18;9.93;;;9.13;;
21519;SDS011;10921;53.614;9.882;2022-09-03T00:17:58;9.95;;;9.13;;
21519;SDS011;10921;53.614;9.882;2022-09-03T00:21:14;10.05;;;9.30;;
21519;SDS011;10921;53.614;9.882;2022-09-03T00:23:25;10.38;;;9.57;;
21519;SDS011;10921;53.614;9.882;2022-09-03T00:28:40;10.10;;;9.35;;
21519;SDS011;10921;53.614;9.882;2022-09-03T00:31:34;10.15;;;9.48;;
21519;SDS011;10921;53.614;9.882;2022-09-03T00:34:06;10.50;;;9.60;;
21519;SDS011;10921;53.614;9.882;2022-09-03T00:36:41;10.05;;;9.45;;
21519;SDS011;10921;53.614;9.882;2022-09-03T00:39:10;9.70;;;9.10;;
21519;SDS011;10921;53.614;9.882;2022-09-03T01:01:50;9.57;;;8.88;;
21519;SDS011;10921;53.614;9.882;2022-09-03T01:12:42;9.32;;;8.73;;
21519;SDS011;10921;53.614;9.882;2022-09-03T01:23:47;9.30;;;8.60;;
21519;SDS011;10921;53.614;9.882;2022-09-03T01:26:37;10.55;;;8.75;;
21519;SDS011;10921;53.614;9.882;2022-09-03T01:29:39;9.27;;;8.68;;
21519;SDS011;10921;53.614;9.882;2022-09-03T01:32:54;10.00;;;9.10;;
21519;SDS011;10921;53.614;9.882;2022-09-03T01:40:27;9.25;;;8.63;;
21519;SDS011;10921;53.614;9.882;2022-09-03T01:43:20;9.38;;;8.77;;
21519;SDS011;10921;53.614;9.882;2022-09-03T01:46:02;9.65;;;8.85;;
21519;SDS011;10921;53.614;9.882;2022-09-03T01:48:43;9.60;;;8.80;;
21519;SDS011;10921;53.614;9.882;2022-09-03T01:56:27;9.45;;;8.85;;
21519;SDS011;10921;53.614;9.882;2022-09-03T01:59:19;9.27;;;8.63;;
21519;SDS011;10921;53.614;9.882;2022-09-03T02:02:03;9.57;;;8.88;;
21519;SDS011;10921;53.614;9.882;2022-09-03T02:04:34;8.95;;;8.35;;
21519;SDS011;10921;53.614;9.882;2022-09-03T02:07:01;9.20;;;8.50;;
21519;SDS011;10921;53.614;9.882;2022-09-03T02:09:29;9.27;;;8.18;;
21519;SDS011;10921;53.614;9.882;2022-09-03T02:12:03;8.95;;;8.20;;
21519;SDS011;10921;53.614;9.882;2022-09-03T02:14:39;8.93;;;8.23;;
21519;SDS011;10921;53.614;9.882;2022-09-03T02:17:06;8.65;;;8.05;;
21519;SDS011;10921;53.614;9.882;2022-09-03T02:19:33;20.77;;;8.55;;
21519;SDS011;10921;53.614;9.882;2022-09-03T02:22:02;9.30;;;8.60;;
21519;SDS011;10921;53.614;9.882;2022-09-03T02:24:30;9.45;;;8.85;;
21519;SDS011;10921;53.614;9.882;2022-09-03T02:26:57;9.45;;;8.55;;
21519;SDS011;10921;53.614;9.882;2022-09-03T02:29:24;9.00;;;8.40;;
21519;SDS011;10921;53.614;9.882;2022-09-03T02:31:52;9.25;;;8.43;;
21519;SDS011;10921;53.614;9.882;2022-09-03T02:34:19;8.35;;;7.85;;
21519;SDS011;10921;53.614;9.882;2022-09-03T02:36:46;9.15;;;8.38;;
21519;SDS011;10921;53.614;9.882;2022-09-03T02:39:13;9.73;;;8.98;;
21519;SDS011;10921;53.614;9.882;2022-09-03T02:41:41;9.40;;;8.70;;
21519;SDS011;10921;53.614;9.882;2022-09-03T02:44:10;9.80;;;9.00;;
21519;SDS011;10921;53.614;9.882;2022-09-03T02:47:00;9.50;;;8.60;;
21519;SDS011;10921;53.614;9.882;2022-09-03T02:49:29;9.55;;;8.77;;
21519;SDS011;10921;53.614;9.882;2022-09-03T02:52:00;9.45;;;8.57;;
21519;SDS011;10921;53.614;9.882;2022-09-03T02:54:35;9.13;;;8.35;;
21519;SDS011;10921;53.614;9.882;2022-09-03T02:57:05;9.35;;;8.65;;
21519;SDS011;10921;53.614;9.882;2022-09-03T02:59:33;9.35;;;8.52;;
21519;SDS011;10921;53.614;9.882;2022-09-03T03:02:00;9.63;;;8.75;;
21519;SDS011;10921;53.614;9.882;2022-09-03T03:04:28;10.10;;;9.30;;
21519;SDS011;10921;53.614;9.882;2022-09-03T03:06:55;10.10;;;9.20;;
21519;SDS011;10921;53.614;9.882;2022-09-03T03:09:22;9.85;;;9.15;;
21519;SDS011;10921;53.614;9.882;2022-09-03T03:11:48;9.30;;;8.50;;
21519;SDS011;10921;53.614;9.882;2022-09-03T03:14:16;9.88;;;9.18;;
21519;SDS011;10921;53.614;9.882;2022-09-03T03:16:43;9.40;;;8.73;;
21519;SDS011;10921;53.614;9.882;2022-09-03T03:19:10;9.48;;;8.70;;
21519;SDS011;10921;53.614;9.882;2022-09-03T03:21:37;9.43;;;8.50;;
21519;SDS011;10921;53.614;9.882;2022-09-03T03:24:04;9.38;;;8.77;;
21519;SDS011;10921;53.614;9.882;2022-09-03T03:26:32;9.38;;;8.57;;
21519;SDS011;10921;53.614;9.882;2022-09-03T03:28:59;9.02;;;8.43;;
21519;SDS011;10921;53.614;9.882;2022-09-03T03:31:29;9.82;;;9.13;;
21519;SDS011;10921;53.614;9.882;2022-09-03T03:33:58;9.35;;;8.73;;
21519;SDS011;10921;53.614;9.882;2022-09-03T03:36:28;9.68;;;9.00;;
21519;SDS011;10921;53.614;9.882;2022-09-03T03:38:57;9.45;;;8.60;;
21519;SDS011;10921;53.614;9.882;2022-09-03T03:41:26;9.50;;;8.80;;
21519;SDS011;10921;53.614;9.882;2022-09-03T03:43:58;9.25;;;8.65;;
21519;SDS011;10921;53.614;9.882;2022-09-03T03:46:33;9.80;;;9.10;;
21519;SDS011;10921;53.614;9.882;2022-09-03T03:49:04;9.52;;;8.82;;
21519;SDS011;10921;53.614;9.882;2022-09-03T03:51:32;9.95;;;9.20;;
21519;SDS011;10921;53.614;9.882;2022-09-03T03:53:59;9.52;;;8.82;;
21519;SDS011;10921;53.614;9.882;2022-09-03T03:56:30;10.13;;;9.43;;
21519;SDS011;10921;53.614;9.882;2022-09-03T03:58:57;9.52;;;8.93;;
21519;SDS011;10921;53.614;9.882;2022-09-03T04:01:25;10.18;;;9.30;;
21519;SDS011;10921;53.614;9.882;2022-09-03T04:03:54;10.20;;;9.40;;
21519;SDS011;10921;53.614;9.882;2022-09-03T04:06:21;13.48;;;10.50;;
21519;SDS011;10921;53.614;9.882;2022-09-03T04:08:48;10.20;;;9.50;;
21519;SDS011;10921;53.614;9.882;2022-09-03T04:11:19;9.65;;;8.75;;
21519;SDS011;10921;53.614;9.882;2022-09-03T04:13:47;10.57;;;9.25;;
21519;SDS011;10921;53.614;9.882;2022-09-03T04:16:18;9.88;;;9.15;;
21519;SDS011;10921;53.614;9.882;2022-09-03T04:18:47;9.70;;;9.00;;
21519;SDS011;10921;53.614;9.882;2022-09-03T04:21:15;10.50;;;9.70;;
21519;SDS011;10921;53.614;9.882;2022-09-03T04:23:45;10.05;;;9.35;;
21519;SDS011;10921;53.614;9.882;2022-09-03T04:26:13;10.55;;;9.65;;
21519;SDS011;10921;53.614;9.882;2022-09-03T04:28:43;10.70;;;9.90;;
21519;SDS011;10921;53.614;9.882;2022-09-03T04:31:11;10.15;;;9.35;;
21519;SDS011;10921;53.614;9.882;2022-09-03T04:33:39;10.80;;;9.90;;
21519;SDS011;10921;53.614;9.882;2022-09-03T04:38:35;10.38;;;9.63;;
21519;SDS011;10921;53.614;9.882;2022-09-03T04:41:04;10.77;;;9.88;;
21519;SDS011;10921;53.614;9.882;2022-09-03T04:43:31;10.85;;;10.07;;
21519;SDS011;10921;53.614;9.882;2022-09-03T04:45:58;10.50;;;9.70;;
21519;SDS011;10921;53.614;9.882;2022-09-03T04:48:27;11.32;;;10.10;;
21519;SDS011;10921;53.614;9.882;2022-09-03T04:51:00;10.45;;;9.40;;
21519;SDS011;10921;53.614;9.882;2022-09-03T04:53:35;10.80;;;9.75;;
21519;SDS011;10921;53.614;9.882;2022-09-03T04:56:13;10.65;;;9.70;;
21519;SDS011;10921;53.614;9.882;2022-09-03T04:58:43;9.93;;;9.07;;
21519;SDS011;10921;53.614;9.882;2022-09-03T05:01:15;10.25;;;9.55;;
21519;SDS011;10921;53.614;9.882;2022-09-03T05:03:47;10.60;;;9.90;;
21519;SDS011;10921;53.614;9.882;2022-09-03T05:06:14;10.20;;;9.50;;
21519;SDS011;10921;53.614;9.882;2022-09-03T05:08:42;10.20;;;9.43;;
21519;SDS011;10921;53.614;9.882;2022-09-03T05:11:14;10.73;;;9.82;;
21519;SDS011;10921;53.614;9.882;2022-09-03T05:13:41;10.77;;;9.90;;
21519;SDS011;10921;53.614;9.882;2022-09-03T05:16:09;10.73;;;10.00;;
21519;SDS011;10921;53.614;9.882;2022-09-03T05:18:38;10.27;;;9.43;;
21519;SDS011;10921;53.614;9.882;2022-09-03T05:21:08;10.18;;;9.48;;
21519;SDS011;10921;53.614;9.882;2022-09-03T05:23:40;10.90;;;9.90;;
21519;SDS011;10921;53.614;9.882;2022-09-03T05:26:09;10.55;;;9.77;;
21519;SDS011;10921;53.614;9.882;2022-09-03T05:28:39;10.18;;;9.38;;
21519;SDS011;10921;53.614;9.882;2022-09-03T05:31:08;10.82;;;9.93;;
21519;SDS011;10921;53.614;9.882;2022-09-03T05:33:37;10.63;;;9.88;;
21519;SDS011;10921;53.614;9.882;2022-09-03T05:36:15;10.88;;;10.18;;
21519;SDS011;10921;53.614;9.882;2022-09-03T05:38:44;11.02;;;10.13;;
21519;SDS011;10921;53.614;9.882;2022-09-03T05:41:13;9.90;;;9.20;;
21519;SDS011;10921;53.614;9.882;2022-09-03T05:43:40;10.60;;;9.80;;
21519;SDS011;10921;53.614;9.882;2022-09-03T05:46:08;11.05;;;9.93;;
21519;SDS011;10921;53.614;9.882;2022-09-03T05:48:37;10.20;;;9.47;;
21519;SDS011;10921;53.614;9.882;2022-09-03T05:51:09;10.35;;;9.43;;
21519;SDS011;10921;53.614;9.882;2022-09-03T05:53:38;10.30;;;9.50;;
21519;SDS011;10921;53.614;9.882;2022-09-03T05:56:06;10.70;;;9.80;;
21519;SDS011;10921;53.614;9.882;2022-09-03T05:58:41;12.25;;;9.73;;
21519;SDS011;10921;53.614;9.882;2022-09-03T06:01:18;9.98;;;9.27;;
21519;SDS011;10921;53.614;9.882;2022-09-03T06:03:55;10.52;;;9.60;;
21519;SDS011;10921;53.614;9.882;2022-09-03T06:06:31;10.35;;;9.32;;
21519;SDS011;10921;53.614;9.882;2022-09-03T06:09:06;19.13;;;10.30;;
21519;SDS011;10921;53.614;9.882;2022-09-03T06:11:34;11.57;;;9.70;;
21519;SDS011;10921;53.614;9.882;2022-09-03T06:14:04;12.65;;;10.05;;
21519;SDS011;10921;53.614;9.882;2022-09-03T06:16:37;10.43;;;9.63;;
21519;SDS011;10921;53.614;9.882;2022-09-03T06:19:09;10.02;;;9.23;;
21519;SDS011;10921;53.614;9.882;2022-09-03T06:21:39;10.18;;;9.10;;
21519;SDS011;10921;53.614;9.882;2022-09-03T06:24:11;10.50;;;9.50;;
21519;SDS011;10921;53.614;9.882;2022-09-03T06:26:43;10.98;;;9.90;;
21519;SDS011;10921;53.614;9.882;2022-09-03T06:29:14;9.82;;;9.13;;
21519;SDS011;10921;53.614;9.882;2022-09-03T06:31:44;9.43;;;8.63;;
21519;SDS011;10921;53.614;9.882;2022-09-03T06:34:17;10.18;;;9.02;;
21519;SDS011;10921;53.614;9.882;2022-09-03T06:36:44;9.45;;;8.55;;
21519;SDS011;10921;53.614;9.882;2022-09-03T06:39:11;9.52;;;8.80;;
21519;SDS011;10921;53.614;9.882;2022-09-03T06:41:38;9.95;;;9.15;;
21519;SDS011;10921;53.614;9.882;2022-09-03T06:44:06;9.57;;;8.88;;
21519;SDS011;10921;53.614;9.882;2022-09-03T06:46:42;9.90;;;9.20;;
21519;SDS011;10921;53.614;9.882;2022-09-03T06:49:18;10.18;;;9.27;;
21519;SDS011;10921;53.614;9.882;2022-09-03T06:51:54;9.57;;;8.73;;
21519;SDS011;10921;53.614;9.882;2022-09-03T06:54:31;8.82;;;8.23;;
21519;SDS011;10921;53.614;9.882;2022-09-03T06:57:04;11.27;;;8.70;;
21519;SDS011;10921;53.614;9.882;2022-09-03T06:59:35;10.68;;;9.00;;
21519;SDS011;10921;53.614;9.882;2022-09-03T07:02:03;9.48;;;8.88;;
21519;SDS011;10921;53.614;9.882;2022-09-03T07:04:38;9.43;;;8.80;;
21519;SDS011;10921;53.614;9.882;2022-09-03T07:07:19;9.63;;;8.93;;
21519;SDS011;10921;53.614;9.882;2022-09-03T07:09:51;10.43;;;9.45;;
21519;SDS011;10921;53.614;9.882;2022-09-03T07:12:22;9.30;;;8.65;;
21519;SDS011;10921;53.614;9.882;2022-09-03T07:14:49;9.55;;;8.85;;
21519;SDS011;10921;53.614;9.882;2022-09-03T07:20:26;9.40;;;8.77;;
21519;SDS011;10921;53.614;9.882;2022-09-03T07:23:17;12.35;;;8.82;;
21519;SDS011;10921;53.614;9.882;2022-09-03T07:28:58;9.50;;;8.70;;
21519;SDS011;10921;53.614;9.882;2022-09-03T07:32:24;9.25;;;8.55;;
21519;SDS011;10921;53.614;9.882;2022-09-03T07:34:55;9.35;;;8.65;;
21519;SDS011;10921;53.614;9.882;2022-09-03T07:37:23;9.20;;;8.60;;
21519;SDS011;10921;53.614;9.882;2022-09-03T07:39:50;9.20;;;8.35;;
21519;SDS011;10921;53.614;9.882;2022-09-03T07:42:22;9.40;;;8.70;;
21519;SDS011;10921;53.614;9.882;2022-09-03T07:44:57;9.82;;;9.02;;
21519;SDS011;10921;53.614;9.882;2022-09-03T07:51:04;9.50;;;8.88;;
21519;SDS011;10921;53.614;9.882;2022-09-03T07:53:38;9.73;;;8.93;;
21519;SDS011;10921;53.614;9.882;2022-09-03T07:56:13;9.30;;;8.70;;
21519;SDS011;10921;53.614;9.882;2022-09-03T07:58:46;9.82;;;8.93;;
21519;SDS011;10921;53.614;9.882;2022-09-03T08:01:15;9.73;;;8.82;;
21519;SDS011;10921;53.614;9.882;2022-09-03T08:03:45;10.57;;;8.80;;
21519;SDS011;10921;53.614;9.882;2022-09-03T08:06:16;9.98;;;9.00;;
21519;SDS011;10921;53.614;9.882;2022-09-03T08:08:45;9.70;;;8.73;;
21519;SDS011;10921;53.614;9.882;2022-09-03T08:11:16;12.18;;;8.57;;
21519;SDS011;10921;53.614;9.882;2022-09-03T08:13:45;9.43;;;8.73;;
21519;SDS011;10921;53.614;9.882;2022-09-03T08:16:16;10.15;;;9.23;;
21519;SDS011;10921;53.614;9.882;2022-09-03T08:18:43;9.82;;;9.02;;
21519;SDS011;10921;53.614;9.882;2022-09-03T08:21:16;10.27;;;9.05;;
21519;SDS011;10921;53.614;9.882;2022-09-03T08:23:45;9.98;;;9.07;;
21519;SDS011;10921;53.614;9.882;2022-09-03T08:26:14;9.65;;;8.90;;
21519;SDS011;10921;53.614;9.882;2022-09-03T08:28:41;9.50;;;8.70;;
21519;SDS011;10921;53.614;9.882;2022-09-03T08:31:12;9.13;;;8.52;;
21519;SDS011;10921;53.614;9.882;2022-09-03T08:33:53;9.63;;;8.82;;
21519;SDS011;10921;53.614;9.882;2022-09-03T08:36:23;10.93;;;8.82;;
21519;SDS011;10921;53.614;9.882;2022-09-03T08:38:52;10.00;;;9.02;;
21519;SDS011;10921;53.614;9.882;2022-09-03T08:44:29;10.43;;;9.20;;
21519;SDS011;10921;53.614;9.882;2022-09-03T08:47:07;9.38;;;8.68;;
21519;SDS011;10921;53.614;9.882;2022-09-03T08:57:52;9.25;;;8.55;;
21519;SDS011;10921;53.614;9.882;2022-09-03T09:01:13;9.45;;;8.80;;
21519;SDS011;10921;53.614;9.882;2022-09-03T09:09:04;9.55;;;8.90;;
21519;SDS011;10921;53.614;9.882;2022-09-03T09:14:35;10.13;;;9.10;;
21519;SDS011;10921;53.614;9.882;2022-09-03T09:17:22;10.18;;;9.23;;
21519;SDS011;10921;53.614;9.882;2022-09-03T09:22:55;9.95;;;9.13;;
21519;SDS011;10921;53.614;9.882;2022-09-03T09:25:26;10.57;;;9.57;;
21519;SDS011;10921;53.614;9.882;2022-09-03T09:30:25;10.48;;;9.02;;
21519;SDS011;10921;53.614;9.882;2022-09-03T09:32:53;12.50;;;9.20;;
21519;SDS011;10921;53.614;9.882;2022-09-03T09:35:21;9.73;;;9.02;;
21519;SDS011;10921;53.614;9.882;2022-09-03T09:37:49;8.98;;;8.43;;
21519;SDS011;10921;53.614;9.882;2022-09-03T09:40:25;8.98;;;8.18;;
21519;SDS011;10921;53.614;9.882;2022-09-03T09:43:15;9.23;;;8.50;;
21519;SDS011;10921;53.614;9.882;2022-09-03T09:45:46;9.43;;;8.50;;
21519;SDS011;10921;53.614;9.882;2022-09-03T09:48:29;9.77;;;8.20;;
21519;SDS011;10921;53.614;9.882;2022-09-03T09:51:02;12.88;;;8.40;;
21519;SDS011;10921;53.614;9.882;2022-09-03T09:53:31;8.82;;;8.20;;
21519;SDS011;10921;53.614;9.882;2022-09-03T09:55:58;9.35;;;8.43;;
21519;SDS011;10921;53.614;9.882;2022-09-03T09:58:25;8.60;;;8.00;;
21519;SDS011;10921;53.614;9.882;2022-09-03T10:01:11;10.02;;;8.88;;
21519;SDS011;10921;53.614;9.882;2022-09-03T10:03:51;9.35;;;8.55;;
21519;SDS011;10921;53.614;9.882;2022-09-03T10:06:27;8.90;;;8.30;;
21519;SDS011;10921;53.614;9.882;2022-09-03T10:09:15;9.40;;;8.50;;
21519;SDS011;10921;53.614;9.882;2022-09-03T10:11:48;9.20;;;8.48;;
21519;SDS011;10921;53.614;9.882;2022-09-03T10:14:28;9.55;;;8.75;;
21519;SDS011;10921;53.614;9.882;2022-09-03T10:17:21;9.48;;;8.45;;
21519;SDS011;10921;53.614;9.882;2022-09-03T10:23:06;8.82;;;8.23;;
21519;SDS011;10921;53.614;9.882;2022-09-03T10:28:32;8.32;;;7.82;;
21519;SDS011;10921;53.614;9.882;2022-09-03T10:39:20;8.43;;;7.65;;
21519;SDS011;10921;53.614;9.882;2022-09-03T10:44:36;9.57;;;8.07;;
21519;SDS011;10921;53.614;9.882;2022-09-03T11:01:12;13.48;;;8.13;;
21519;SDS011;10921;53.614;9.882;2022-09-03T11:03:51;9.25;;;8.32;;
21519;SDS011;10921;53.614;9.882;2022-09-03T11:06:28;8.45;;;7.75;;
21519;SDS011;10921;53.614;9.882;2022-09-03T11:09:04;8.40;;;7.68;;
21519;SDS011;10921;53.614;9.882;2022-09-03T11:11:43;11.75;;;8.13;;
21519;SDS011;10921;53.614;9.882;2022-09-03T11:14:27;9.05;;;8.18;;
21519;SDS011;10921;53.614;9.882;2022-09-03T11:17:07;8.18;;;7.50;;
21519;SDS011;10921;53.614;9.882;2022-09-03T11:19:47;8.80;;;8.20;;
21519;SDS011;10921;53.614;9.882;2022-09-03T11:22:19;9.30;;;8.30;;
21519;SDS011;10921;53.614;9.882;2022-09-03T11:24:50;10.85;;;7.70;;
21519;SDS011;10921;53.614;9.882;2022-09-03T11:27:28;8.65;;;7.78;;
21519;SDS011;10921;53.614;9.882;2022-09-03T11:38:01;13.43;;;8.30;;
21519;SDS011;10921;53.614;9.882;2022-09-03T11:40:33;9.13;;;8.20;;
21519;SDS011;10921;53.614;9.882;2022-09-03T11:53:56;9.65;;;8.18;;
21519;SDS011;10921;53.614;9.882;2022-09-03T11:56:28;9.88;;;8.30;;
21519;SDS011;10921;53.614;9.882;2022-09-03T12:01:42;8.32;;;7.70;;
21519;SDS011;10921;53.614;9.882;2022-09-03T12:04:24;8.50;;;7.90;;
21519;SDS011;10921;53.614;9.882;2022-09-03T12:16:03;8.60;;;7.85;;
21519;SDS011;10921;53.614;9.882;2022-09-03T12:18:55;8.45;;;7.70;;
21519;SDS011;10921;53.614;9.882;2022-09-03T12:21:29;8.55;;;7.95;;
21519;SDS011;10921;53.614;9.882;2022-09-03T12:24:00;10.52;;;8.40;;
21519;SDS011;10921;53.614;9.882;2022-09-03T12:26:28;8.80;;;8.20;;
21519;SDS011;10921;53.614;9.882;2022-09-03T12:28:55;11.98;;;8.45;;
21519;SDS011;10921;53.614;9.882;2022-09-03T12:31:24;8.30;;;7.80;;
21519;SDS011;10921;53.614;9.882;2022-09-03T12:33:58;8.50;;;7.75;;
21519;SDS011;10921;53.614;9.882;2022-09-03T12:36:47;8.32;;;7.75;;
21519;SDS011;10921;53.614;9.882;2022-09-03T12:39:26;9.00;;;8.05;;
21519;SDS011;10921;53.614;9.882;2022-09-03T12:42:22;11.25;;;8.20;;
21519;SDS011;10921;53.614;9.882;2022-09-03T12:44:52;8.98;;;8.27;;
21519;SDS011;10921;53.614;9.882;2022-09-03T12:47:20;8.93;;;8.13;;
21519;SDS011;10921;53.614;9.882;2022-09-03T12:50:06;8.20;;;7.50;;
21519;SDS011;10921;53.614;9.882;2022-09-03T12:52:44;8.40;;;7.70;;
21519;SDS011;10921;53.614;9.882;2022-09-03T12:57:48;8.70;;;7.90;;
21519;SDS011;10921;53.614;9.882;2022-09-03T13:00:28;15.85;;;7.88;;
21519;SDS011;10921;53.614;9.882;2022-09-03T13:03:08;8.35;;;7.60;;
21519;SDS011;10921;53.614;9.882;2022-09-03T13:05:46;8.80;;;7.90;;
21519;SDS011;10921;53.614;9.882;2022-09-03T13:08:23;10.10;;;7.95;;
21519;SDS011;10921;53.614;9.882;2022-09-03T13:10:57;8.13;;;7.53;;
21519;SDS011;10921;53.614;9.882;2022-09-03T13:13:28;7.90;;;7.40;;
21519;SDS011;10921;53.614;9.882;2022-09-03T13:23:44;8.38;;;7.60;;
21519;SDS011;10921;53.614;9.882;2022-09-03T13:26:39;8.10;;;7.40;;
21519;SDS011;10921;53.614;9.882;2022-09-03T13:30:19;8.52;;;7.97;;
21519;SDS011;10921;53.614;9.882;2022-09-03T13:47:04;8.60;;;8.00;;
21519;SDS011;10921;53.614;9.882;2022-09-03T13:49:48;9.27;;;8.13;;
21519;SDS011;10921;53.614;9.882;2022-09-03T13:52:43;8.57;;;7.75;;
21519;SDS011;10921;53.614;9.882;2022-09-03T13:55:22;8.80;;;7.87;;
21519;SDS011;10921;53.614;9.882;2022-09-03T14:09:11;8.25;;;7.55;;
21519;SDS011;10921;53.614;9.882;2022-09-03T14:16:55;7.95;;;7.25;;
21519;SDS011;10921;53.614;9.882;2022-09-03T14:22:09;8.38;;;7.88;;
21519;SDS011;10921;53.614;9.882;2022-09-03T14:24:44;7.97;;;7.47;;
21519;SDS011;10921;53.614;9.882;2022-09-03T14:27:22;8.07;;;7.47;;
21519;SDS011;10921;53.614;9.882;2022-09-03T14:29:57;9.55;;;8.05;;
21519;SDS011;10921;53.614;9.882;2022-09-03T14:32:27;9.00;;;8.00;;
21519;SDS011;10921;53.614;9.882;2022-09-03T14:40:55;8.02;;;7.45;;
21519;SDS011;10921;53.614;9.882;2022-09-03T14:52:06;8.77;;;7.53;;
21519;SDS011;10921;53.614;9.882;2022-09-03T15:06:46;7.97;;;7.28;;
21519;SDS011;10921;53.614;9.882;2022-09-03T15:12:05;8.27;;;7.47;;
21519;SDS011;10921;53.614;9.882;2022-09-03T15:17:37;8.90;;;8.30;;
21519;SDS011;10921;53.614;9.882;2022-09-03T15:31:49;9.00;;;8.40;;
21519;SDS011;10921;53.614;9.882;2022-09-03T15:34:47;8.98;;;8.38;;
21519;SDS011;10921;53.614;9.882;2022-09-03T15:37:20;12.65;;;8.90;;
21519;SDS011;10921;53.614;9.882;2022-09-03T15:39:57;9.30;;;8.60;;
21519;SDS011;10921;53.614;9.882;2022-09-03T15:42:29;9.43;;;8.50;;
21519;SDS011;10921;53.614;9.882;2022-09-03T15:45:00;10.32;;;8.32;;
21519;SDS011;10921;53.614;9.882;2022-09-03T15:59:30;9.38;;;8.73;;
21519;SDS011;10921;53.614;9.882;2022-09-03T16:02:06;15.68;;;8.88;;
21519;SDS011;10921;53.614;9.882;2022-09-03T16:10:16;9.77;;;8.88;;
21519;SDS011;10921;53.614;9.882;2022-09-03T16:13:01;10.15;;;9.20;;
21519;SDS011;10921;53.614;9.882;2022-09-03T16:15:36;10.18;;;9.05;;
21519;SDS011;10921;53.614;9.882;2022-09-03T16:18:09;9.73;;;9.00;;
21519;SDS011;10921;53.614;9.882;2022-09-03T16:20:55;9.90;;;9.15;;
21519;SDS011;10921;53.614;9.882;2022-09-03T16:23:39;9.88;;;9.05;;
21519;SDS011;10921;53.614;9.882;2022-09-03T16:26:14;10.25;;;9.10;;
21519;SDS011;10921;53.614;9.882;2022-09-03T16:28:53;10.02;;;9.13;;
21519;SDS011;10921;53.614;9.882;2022-09-03T16:40:35;10.48;;;8.45;;
21519;SDS011;10921;53.614;9.882;2022-09-03T16:46:17;9.65;;;8.85;;
21519;SDS011;10921;53.614;9.882;2022-09-03T16:49:23;9.38;;;8.68;;
21519;SDS011;10921;53.614;9.882;2022-09-03T17:00:27;9.70;;;9.00;;
21519;SDS011;10921;53.614;9.882;2022-09-03T17:03:25;9.75;;;9.05;;
21519;SDS011;10921;53.614;9.882;2022-09-03T17:05:57;10.05;;;8.77;;
21519;SDS011;10921;53.614;9.882;2022-09-03T17:22:52;10.38;;;9.32;;
21519;SDS011;10921;53.614;9.882;2022-09-03T17:25:40;9.75;;;8.95;;
21519;SDS011;10921;53.614;9.882;2022-09-03T17:28:39;9.43;;;8.82;;
21519;SDS011;10921;53.614;9.882;2022-09-03T17:31:45;10.18;;;9.48;;
21519;SDS011;10921;53.614;9.882;2022-09-03T17:43:06;10.68;;;9.80;;
21519;SDS011;10921;53.614;9.882;2022-09-03T17:45:50;10.30;;;9.60;;
21519;SDS011;10921;53.614;9.882;2022-09-03T17:51:38;9.70;;;8.90;;
21519;SDS011;10921;53.614;9.882;2022-09-03T17:59:36;10.45;;;9.63;;
21519;SDS011;10921;53.614;9.882;2022-09-03T18:02:29;9.60;;;8.80;;
21519;SDS011;10921;53.614;9.882;2022-09-03T18:05:26;10.98;;;9.40;;
21519;SDS011;10921;53.614;9.882;2022-09-03T18:08:00;10.30;;;9.50;;
21519;SDS011;10921;53.614;9.882;2022-09-03T18:13:23;9.65;;;8.98;;
21519;SDS011;10921;53.614;9.882;2022-09-03T18:16:08;10.00;;;9.27;;
21519;SDS011;10921;53.614;9.882;2022-09-03T18:19:20;10.02;;;9.23;;
21519;SDS011;10921;53.614;9.882;2022-09-03T18:21:35;9.90;;;9.10;;
21519;SDS011;10921;53.614;9.882;2022-09-03T18:24:26;11.10;;;10.00;;
21519;SDS011;10921;53.614;9.882;2022-09-03T18:27:31;10.15;;;9.38;;
21519;SDS011;10921;53.614;9.882;2022-09-03T18:30:19;11.40;;;8.95;;
21519;SDS011;10921;53.614;9.882;2022-09-03T18:33:05;10.20;;;9.50;;
21519;SDS011;10921;53.614;9.882;2022-09-03T18:35:50;10.00;;;9.20;;
21519;SDS011;10921;53.614;9.882;2022-09-03T18:38:36;9.90;;;9.07;;
21519;SDS011;10921;53.614;9.882;2022-09-03T18:57:46;10.48;;;9.60;;
21519;SDS011;10921;53.614;9.882;2022-09-03T19:00:45;10.95;;;10.05;;
21519;SDS011;10921;53.614;9.882;2022-09-03T19:03:59;12.73;;;10.10;;
21519;SDS011;10921;53.614;9.882;2022-09-03T19:10:05;11.30;;;10.35;;
21519;SDS011;10921;53.614;9.882;2022-09-03T19:13:07;10.43;;;9.60;;
21519;SDS011;10921;53.614;9.882;2022-09-03T19:16:09;10.30;;;9.60;;
21519;SDS011;10921;53.614;9.882;2022-09-03T19:22:37;10.30;;;9.50;;
21519;SDS011;10921;53.614;9.882;2022-09-03T19:25:24;10.15;;;9.23;;
21519;SDS011;10921;53.614;9.882;2022-09-03T19:28:18;10.30;;;9.50;;
21519;SDS011;10921;53.614;9.882;2022-09-03T19:31:23;10.55;;;9.75;;
21519;SDS011;10921;53.614;9.882;2022-09-03T19:38:10;11.05;;;10.25;;
21519;SDS011;10921;53.614;9.882;2022-09-03T19:41:38;10.90;;;9.85;;
21519;SDS011;10921;53.614;9.882;2022-09-03T19:44:41;10.52;;;9.63;;
21519;SDS011;10921;53.614;9.882;2022-09-03T19:50:26;11.10;;;10.20;;
21519;SDS011;10921;53.614;9.882;2022-09-03T19:53:18;11.50;;;10.40;;
21519;SDS011;10921;53.614;9.882;2022-09-03T19:56:04;10.57;;;9.77;;
21519;SDS011;10921;53.614;9.882;2022-09-03T19:58:55;10.77;;;9.88;;
21519;SDS011;10921;53.614;9.882;2022-09-03T20:01:44;10.15;;;9.52;;
21519;SDS011;10921;53.614;9.882;2022-09-03T20:04:31;10.75;;;10.05;;
21519;SDS011;10921;53.614;9.882;2022-09-03T20:07:23;10.43;;;9.73;;
21519;SDS011;10921;53.614;9.882;2022-09-03T20:10:09;12.10;;;11.15;;
21519;SDS011;10921;53.614;9.882;2022-09-03T20:15:31;11.40;;;10.50;;
21519;SDS011;10921;53.614;9.882;2022-09-03T20:18:24;11.20;;;10.40;;
21519;SDS011;10921;53.614;9.882;2022-09-03T20:21:13;11.93;;;10.65;;
21519;SDS011;10921;53.614;9.882;2022-09-03T20:26:49;11.27;;;10.48;;
21519;SDS011;10921;53.614;9.882;2022-09-03T20:35:15;11.40;;;10.40;;
21519;SDS011;10921;53.614;9.882;2022-09-03T20:39:00;12.80;;;11.60;;
21519;SDS011;10921;53.614;9.882;2022-09-03T20:46:36;10.95;;;10.10;;
21519;SDS011;10921;53.614;9.882;2022-09-03T21:08:12;9.65;;;9.05;;
21519;SDS011;10921;53.614;9.882;2022-09-03T21:19:10;10.45;;;9.43;;
21519;SDS011;10921;53.614;9.882;2022-09-03T21:21:57;10.48;;;9.68;;
21519;SDS011;10921;53.614;9.882;2022-09-03T21:24:39;10.23;;;9.38;;
21519;SDS011;10921;53.614;9.882;2022-09-03T21:27:14;10.27;;;9.48;;
21519;SDS011;10921;53.614;9.882;2022-09-03T21:29:54;10.30;;;9.60;;
21519;SDS011;10921;53.614;9.882;2022-09-03T21:35:26;11.02;;;9.90;;
21519;SDS011;10921;53.614;9.882;2022-09-03T21:38:12;10.48;;;9.70;;
21519;SDS011;10921;53.614;9.882;2022-09-03T21:40:48;10.77;;;9.80;;
21519;SDS011;10921;53.614;9.882;2022-09-03T21:43:28;12.05;;;9.88;;
21519;SDS011;10921;53.614;9.882;2022-09-03T21:46:24;10.60;;;9.77;;
21519;SDS011;10921;53.614;9.882;2022-09-03T21:49:05;10.40;;;9.70;;
21519;SDS011;10921;53.614;9.882;2022-09-03T21:54:09;11.20;;;10.23;;
21519;SDS011;10921;53.614;9.882;2022-09-03T22:01:51;10.30;;;9.60;;
21519;SDS011;10921;53.614;9.882;2022-09-03T22:04:28;10.65;;;9.75;;
21519;SDS011;10921;53.614;9.882;2022-09-03T22:09:39;9.90;;;9.20;;
21519;SDS011;10921;53.614;9.882;2022-09-03T22:14:49;9.77;;;9.10;;
21519;SDS011;10921;53.614;9.882;2022-09-03T22:17:21;9.60;;;8.80;;